createdAt,value
2023-05-10T00:02:01.899Z,12.70
2023-05-10T00:05:13.615Z,12.80
2023-05-10T00:08:23.755Z,12.80
2023-05-10T00:12:20.750Z,12.80
2023-05-10T00:17:42.219Z,12.80
2023-05-10T00:22:14.881Z,12.80
2023-05-10T00:27:17.924Z,12.80
2023-05-10T00:30:29.390Z,12.80
2023-05-10T00:36:27.180Z,12.70
2023-05-10T00:42:21.603Z,12.70
2023-05-10T00:48:41.068Z,12.70
2023-05-10T00:54:59.533Z,12.70
2023-05-10T01:00:37.101Z,12.70
2023-05-10T01:04:01.078Z,12.80
2023-05-10T01:06:56.007Z,12.80
2023-05-10T01:10:27.273Z,12.80
2023-05-10T01:15:29.593Z,12.90
2023-05-10T01:18:03.242Z,12.80
2023-05-10T01:20:44.568Z,12.80
2023-05-10T01:23:24.448Z,12.80
2023-05-10T01:29:38.367Z,12.80
2023-05-10T01:32:29.610Z,12.90
2023-05-10T01:38:54.443Z,12.90
2023-05-10T01:44:38.924Z,12.90
2023-05-10T01:48:06.695Z,12.90
2023-05-10T01:53:33.814Z,13.00
2023-05-10T01:59:19.895Z,13.00
2023-05-10T02:04:59.935Z,13.00
2023-05-10T02:11:18.840Z,13.00
2023-05-10T02:17:51.670Z,12.80
2023-05-10T02:23:29.273Z,12.70
2023-05-10T02:29:05.006Z,12.60
2023-05-10T02:35:24.537Z,12.60
2023-05-10T02:41:44.492Z,12.60
2023-05-10T02:47:38.594Z,12.60
2023-05-10T02:53:03.156Z,12.50
2023-05-10T02:59:08.758Z,12.40
2023-05-10T03:01:40.833Z,12.40
2023-05-10T03:04:14.351Z,12.40
2023-05-10T03:06:50.614Z,12.40
2023-05-10T03:12:19.021Z,12.40
2023-05-10T03:18:32.786Z,12.40
2023-05-10T03:24:01.507Z,12.40
2023-05-10T03:29:00.122Z,12.40
2023-05-10T03:33:54.627Z,12.40
2023-05-10T03:39:08.706Z,12.40
2023-05-10T03:44:08.044Z,12.30
2023-05-10T03:49:21.873Z,12.30
2023-05-10T03:55:29.801Z,12.30
2023-05-10T04:01:47.028Z,12.40
2023-05-10T04:08:05.685Z,12.50
2023-05-10T04:14:00.135Z,12.50
2023-05-10T04:19:55.849Z,12.60
2023-05-10T04:26:14.715Z,12.60
2023-05-10T04:32:33.204Z,12.60
2023-05-10T04:38:28.021Z,12.70
2023-05-10T04:44:22.539Z,12.70
2023-05-10T04:50:41.250Z,12.90
2023-05-10T04:56:59.704Z,13.10
2023-05-10T05:03:06.418Z,13.20
2023-05-10T05:09:02.294Z,13.20
2023-05-10T05:15:20.993Z,13.30
2023-05-10T05:21:39.686Z,13.30
2023-05-10T05:27:35.012Z,13.20
2023-05-10T05:33:29.218Z,13.20
2023-05-10T05:39:43.674Z,13.20
2023-05-10T05:45:55.025Z,13.20
2023-05-10T05:51:47.577Z,13.40
2023-05-10T05:57:54.822Z,13.40
2023-05-10T06:04:11.626Z,13.60
2023-05-10T06:09:42.982Z,13.70
2023-05-10T06:13:23.641Z,13.70
2023-05-10T06:16:14.709Z,13.90
2023-05-10T06:20:44.864Z,14.00
2023-05-10T06:25:12.537Z,14.10
2023-05-10T06:31:05.121Z,14.00
2023-05-10T06:37:22.003Z,14.10
2023-05-10T06:40:21.096Z,14.20
2023-05-10T06:43:46.301Z,14.30
2023-05-10T06:46:13.186Z,14.50
2023-05-10T06:48:59.850Z,14.30
2023-05-10T06:51:42.364Z,14.40
2023-05-10T06:54:42.139Z,14.30
2023-05-10T06:57:19.504Z,14.40
2023-05-10T07:03:18.072Z,14.40
2023-05-10T07:09:05.367Z,14.50
2023-05-10T07:13:57.961Z,14.60
2023-05-10T07:20:12.916Z,14.80
2023-05-10T07:25:30.187Z,15.00
2023-05-10T07:30:31.760Z,14.70
2023-05-10T07:36:26.733Z,14.90
2023-05-10T07:42:21.294Z,15.20
2023-05-10T07:48:32.648Z,15.20
2023-05-10T07:54:51.089Z,15.20
2023-05-10T08:00:45.525Z,15.10
2023-05-10T08:06:32.125Z,15.30
2023-05-10T08:12:45.272Z,15.60
2023-05-10T08:19:03.828Z,15.40
2023-05-10T08:24:58.322Z,15.40
2023-05-10T08:30:53.351Z,15.40
2023-05-10T08:36:31.446Z,15.60
2023-05-10T08:43:21.334Z,15.90
2023-05-10T08:49:39.661Z,15.90
2023-05-10T08:55:19.613Z,15.80
2023-05-10T09:01:38.803Z,15.60
2023-05-10T09:07:17.122Z,15.40
2023-05-10T09:12:50.231Z,15.40
2023-05-10T09:18:44.418Z,15.60
2023-05-10T09:25:17.973Z,15.90
2023-05-10T09:32:04.377Z,15.70
2023-05-10T09:37:59.998Z,15.30
2023-05-10T09:43:56.831Z,15.10
2023-05-10T09:50:15.174Z,15.30
2023-05-10T09:56:37.335Z,15.40
2023-05-10T10:02:31.172Z,15.20
2023-05-10T10:07:23.431Z,15.30
2023-05-10T10:10:22.217Z,15.30
2023-05-10T10:14:01.165Z,15.20
2023-05-10T10:18:29.769Z,15.20
2023-05-10T10:22:09.034Z,15.40
2023-05-10T10:24:41.525Z,15.40
2023-05-10T10:29:24.880Z,15.40
2023-05-10T10:32:54.086Z,15.60
2023-05-10T10:36:40.720Z,15.50
2023-05-10T10:41:11.624Z,15.40
2023-05-10T10:44:26.236Z,15.70
2023-05-10T10:47:25.404Z,15.80
2023-05-10T10:52:34.378Z,15.90
2023-05-10T10:55:25.919Z,15.80
2023-05-10T11:01:34.363Z,15.70
2023-05-10T11:07:21.993Z,15.70
2023-05-10T11:13:45.890Z,15.70
2023-05-10T11:20:07.362Z,15.60
2023-05-10T11:25:17.752Z,15.40
2023-05-10T11:29:53.558Z,15.20
2023-05-10T11:32:41.134Z,15.20
2023-05-10T11:35:56.964Z,15.40
2023-05-10T11:38:25.987Z,15.50
2023-05-10T11:40:54.401Z,15.60
2023-05-10T11:43:21.373Z,15.50
2023-05-10T11:45:49.341Z,15.50
2023-05-10T11:49:08.042Z,15.30
2023-05-10T11:51:40.542Z,15.30
2023-05-10T11:55:01.389Z,15.20
2023-05-10T11:59:04.050Z,15.40
2023-05-10T12:04:18.282Z,15.60
2023-05-10T12:09:43.593Z,15.50
2023-05-10T12:13:15.105Z,15.30
2023-05-10T12:15:43.172Z,15.10
2023-05-10T12:19:54.990Z,15.30
2023-05-10T12:24:40.359Z,15.40
2023-05-10T12:30:29.947Z,15.50
2023-05-10T12:34:57.092Z,15.40
2023-05-10T12:40:49.234Z,15.20
2023-05-10T12:43:59.757Z,15.20
2023-05-10T12:49:31.951Z,15.30
2023-05-10T12:52:21.054Z,15.10
2023-05-10T12:54:48.078Z,15.20
2023-05-10T12:58:56.321Z,15.30
2023-05-10T13:04:32.150Z,15.70
2023-05-10T13:07:07.856Z,15.70
2023-05-10T13:09:53.934Z,15.90
2023-05-10T13:15:53.487Z,16.10
2023-05-10T13:22:12.563Z,16.30
2023-05-10T13:28:31.251Z,16.90
2023-05-10T13:34:22.328Z,17.30
2023-05-10T13:40:16.803Z,18.10
2023-05-10T13:45:58.005Z,18.30
2023-05-10T13:51:54.565Z,18.30
2023-05-10T13:57:59.030Z,17.20
2023-05-10T14:03:49.462Z,17.10
2023-05-10T14:10:07.882Z,17.30
2023-05-10T14:16:27.427Z,17.00
2023-05-10T14:22:21.880Z,16.30
2023-05-10T14:28:17.113Z,16.20
2023-05-10T14:34:35.808Z,16.40
2023-05-10T14:40:54.215Z,16.00
2023-05-10T14:46:50.799Z,15.70
2023-05-10T14:52:57.361Z,15.60
2023-05-10T14:59:15.865Z,15.40
2023-05-10T15:05:34.879Z,15.50
2023-05-10T15:11:30.090Z,15.80
2023-05-10T15:17:24.593Z,16.00
2023-05-10T15:23:43.127Z,16.00
2023-05-10T15:30:01.749Z,15.90
2023-05-10T15:35:56.268Z,15.50
2023-05-10T15:41:50.776Z,15.40
2023-05-10T15:48:09.289Z,15.60
2023-05-10T15:54:27.810Z,15.50
2023-05-10T16:00:34.152Z,15.50
2023-05-10T16:06:28.547Z,15.90
2023-05-10T16:12:43.923Z,16.30
2023-05-10T16:19:02.447Z,16.20
2023-05-10T16:24:22.193Z,16.20
2023-05-10T16:30:34.152Z,16.40
2023-05-10T16:34:33.450Z,16.70
2023-05-10T16:38:07.439Z,16.60
2023-05-10T16:42:46.585Z,16.40
2023-05-10T16:45:17.559Z,16.40
2023-05-10T16:47:44.682Z,17.00
2023-05-10T16:50:21.868Z,17.70
2023-05-10T16:53:55.006Z,18.10
2023-05-10T16:58:10.443Z,18.50
2023-05-10T17:02:44.023Z,18.60
2023-05-10T17:07:33.837Z,19.30
2023-05-10T17:10:27.483Z,19.70
2023-05-10T17:13:48.488Z,20.10
2023-05-10T17:16:21.530Z,20.40
2023-05-10T17:18:48.449Z,20.10
2023-05-10T17:21:23.824Z,19.60
2023-05-10T17:24:21.504Z,19.30
2023-05-10T17:28:01.343Z,18.80
2023-05-10T17:30:44.550Z,18.10
2023-05-10T17:34:46.809Z,17.40
2023-05-10T17:39:47.367Z,16.60
2023-05-10T17:42:38.290Z,16.20
2023-05-10T17:45:12.076Z,16.10
2023-05-10T17:47:41.521Z,16.10
2023-05-10T17:50:46.947Z,16.00
2023-05-10T17:53:24.856Z,15.90
2023-05-10T17:57:03.833Z,15.90
2023-05-10T18:00:22.975Z,15.80
2023-05-10T18:06:13.313Z,15.80
2023-05-10T18:08:40.193Z,15.60
2023-05-10T18:11:07.058Z,15.70
2023-05-10T18:13:34.882Z,15.70
2023-05-10T18:16:25.806Z,15.60
2023-05-10T18:20:56.737Z,15.60
2023-05-10T18:27:17.251Z,15.60
2023-05-10T18:33:18.930Z,15.50
2023-05-10T18:39:13.841Z,15.40
2023-05-10T18:45:29.634Z,15.30
2023-05-10T18:51:44.913Z,15.20
2023-05-10T18:57:24.112Z,15.10
2023-05-10T19:03:21.271Z,15.00
2023-05-10T19:09:39.684Z,15.00
2023-05-10T19:15:40.882Z,14.90
2023-05-10T19:20:02.280Z,14.70
2023-05-10T19:22:57.900Z,14.60
2023-05-10T19:25:36.984Z,14.50
2023-05-10T19:29:05.109Z,14.40
2023-05-10T19:33:41.293Z,14.40
2023-05-10T19:38:44.935Z,14.30
2023-05-10T19:41:12.966Z,14.30
2023-05-10T19:46:32.197Z,14.20
2023-05-10T19:49:01.770Z,14.20
2023-05-10T19:52:07.890Z,14.20
2023-05-10T19:54:47.676Z,14.10
2023-05-10T19:59:36.491Z,14.10
2023-05-10T20:04:50.094Z,14.00
2023-05-10T20:11:05.211Z,13.90
2023-05-10T20:16:59.495Z,13.90
2023-05-10T20:22:54.125Z,13.70
2023-05-10T20:28:42.422Z,13.70
2023-05-10T20:35:01.868Z,13.70
2023-05-10T20:40:56.385Z,13.70
2023-05-10T20:46:45.304Z,13.70
2023-05-10T20:52:23.424Z,13.60
2023-05-10T20:57:05.825Z,13.40
2023-05-10T20:59:41.406Z,13.30
2023-05-10T21:02:51.858Z,13.30
2023-05-10T21:05:18.937Z,13.30
2023-05-10T21:07:54.263Z,13.30
2023-05-10T21:10:49.135Z,13.30
2023-05-10T21:13:16.154Z,13.40
2023-05-10T21:15:45.109Z,13.40
2023-05-10T21:18:17.862Z,13.30
2023-05-10T21:20:44.762Z,13.20
2023-05-10T21:24:10.136Z,13.20
2023-05-10T21:27:59.891Z,13.10
2023-05-10T21:30:26.951Z,12.90
2023-05-10T21:32:55.218Z,12.90
2023-05-10T21:35:22.079Z,12.80
2023-05-10T21:37:49.047Z,12.70
2023-05-10T21:40:16.162Z,12.60
2023-05-10T21:42:43.880Z,12.50
2023-05-10T21:47:02.933Z,12.50
2023-05-10T21:50:53.169Z,12.40
2023-05-10T21:53:26.766Z,12.30
2023-05-10T21:56:25.355Z,12.30
2023-05-10T21:59:00.690Z,12.20
2023-05-10T22:02:02.457Z,12.10
2023-05-10T22:04:41.179Z,12.10
2023-05-10T22:07:46.785Z,12.00
2023-05-10T22:10:30.131Z,12.00
2023-05-10T22:13:44.954Z,11.90
2023-05-10T22:16:13.942Z,11.90
2023-05-10T22:18:43.620Z,11.90
2023-05-10T22:21:10.742Z,11.80
2023-05-10T22:23:37.660Z,11.80
2023-05-10T22:26:04.641Z,11.80
2023-05-10T22:28:31.484Z,11.80
2023-05-10T22:30:58.438Z,11.70
2023-05-10T22:33:25.311Z,11.70
2023-05-10T22:35:52.171Z,11.70
2023-05-10T22:38:19.256Z,11.60
2023-05-10T22:40:47.547Z,11.60
2023-05-10T22:43:14.384Z,11.60
2023-05-10T22:45:41.362Z,11.50
2023-05-10T22:48:08.650Z,11.50
2023-05-10T22:50:37.088Z,11.50
2023-05-10T22:53:04.107Z,11.40
2023-05-10T22:55:30.944Z,11.40
2023-05-10T22:57:57.782Z,11.40
2023-05-10T23:00:24.669Z,11.40
2023-05-10T23:02:51.684Z,11.40
2023-05-10T23:05:18.698Z,11.40
2023-05-10T23:07:48.348Z,11.40
2023-05-10T23:10:15.429Z,11.40
2023-05-10T23:12:42.352Z,11.40
2023-05-10T23:15:09.722Z,11.40
2023-05-10T23:17:37.666Z,11.40
2023-05-10T23:20:04.878Z,11.40
2023-05-10T23:22:31.976Z,11.50
2023-05-10T23:24:58.910Z,11.50
2023-05-10T23:27:29.806Z,11.50
2023-05-10T23:29:57.204Z,11.50
2023-05-10T23:32:24.194Z,11.40
2023-05-10T23:34:54.258Z,11.40
2023-05-10T23:37:21.301Z,11.30
2023-05-10T23:39:48.335Z,11.30
2023-05-10T23:42:15.170Z,11.30
2023-05-10T23:44:42.003Z,11.20
2023-05-10T23:47:08.949Z,11.20
2023-05-10T23:49:38.099Z,11.20
2023-05-10T23:52:08.443Z,11.20
2023-05-10T23:54:35.309Z,11.10
2023-05-10T23:57:03.324Z,11.10
2023-05-10T23:59:31.152Z,11.10
